<?xml version="1.0" encoding="UTF-8" standalone="no" ?>
<gpx xmlns="http://www.topografix.com/GPX/1/1" xmlns:xsi="http://www.w3.org/2001/XMLSchema-instance" xsi:schemaLocation="http://www.topografix.com/GPX/1/1 http://www.topografix.com/GPX/1/1/gpx.xsd" version="1.1" creator="VisuGPX - https://www.visugpx.com">
  <metadata>
    <name>Etape 4-2_Col du Portet d'Aspet</name>
  </metadata>
  <trk>
    <name><![CDATA[Etape 4_Bagnères de Luchon _Ercé_Variante 127 kms_3075 D+ ]]></name>
    <extensions>
      <line xmlns="http://www.topografix.com/GPX/gpx_style/0/2">
        <color>0000FF</color>
        <width>4</width>
      </line>
    </extensions>
    <trkseg>
      <trkpt lat="42.95056" lon="0.8182">
        <ele>687</ele>
        <time>2021-08-20T18:00:11Z</time>
      </trkpt>
      <trkpt lat="42.95052" lon="0.81828">
        <ele>688</ele>
        <time>2021-08-20T18:00:12Z</time>
      </trkpt>
      <trkpt lat="42.94996" lon="0.81871">
        <ele>700</ele>
        <time>2021-08-20T18:00:24Z</time>
      </trkpt>
      <trkpt lat="42.94984" lon="0.81874">
        <ele>702</ele>
        <time>2021-08-20T18:00:26Z</time>
      </trkpt>
      <trkpt lat="42.94952" lon="0.81874">
        <ele>709</ele>
        <time>2021-08-20T18:00:31Z</time>
      </trkpt>
      <trkpt lat="42.94933" lon="0.81876">
        <ele>713</ele>
        <time>2021-08-20T18:00:35Z</time>
      </trkpt>
      <trkpt lat="42.94906" lon="0.81897">
        <ele>718</ele>
        <time>2021-08-20T18:00:40Z</time>
      </trkpt>
      <trkpt lat="42.94877" lon="0.81915">
        <ele>731</ele>
        <time>2021-08-20T18:00:46Z</time>
      </trkpt>
      <trkpt lat="42.94864" lon="0.81943">
        <ele>736</ele>
        <time>2021-08-20T18:00:50Z</time>
      </trkpt>
      <trkpt lat="42.94856" lon="0.81968">
        <ele>739</ele>
        <time>2021-08-20T18:00:54Z</time>
      </trkpt>
      <trkpt lat="42.94855" lon="0.82071">
        <ele>741</ele>
        <time>2021-08-20T18:01:07Z</time>
      </trkpt>
      <trkpt lat="42.94859" lon="0.82158">
        <ele>747</ele>
        <time>2021-08-20T18:01:19Z</time>
      </trkpt>
      <trkpt lat="42.94857" lon="0.82251">
        <ele>753</ele>
        <time>2021-08-20T18:01:31Z</time>
      </trkpt>
      <trkpt lat="42.94865" lon="0.82276">
        <ele>753</ele>
        <time>2021-08-20T18:01:34Z</time>
      </trkpt>
      <trkpt lat="42.94866" lon="0.82285">
        <ele>754</ele>
        <time>2021-08-20T18:01:36Z</time>
      </trkpt>
      <trkpt lat="42.94859" lon="0.82296">
        <ele>754</ele>
        <time>2021-08-20T18:01:37Z</time>
      </trkpt>
      <trkpt lat="42.9484" lon="0.8231">
        <ele>754</ele>
        <time>2021-08-20T18:01:41Z</time>
      </trkpt>
      <trkpt lat="42.94831" lon="0.82319">
        <ele>754</ele>
        <time>2021-08-20T18:01:43Z</time>
      </trkpt>
      <trkpt lat="42.94823" lon="0.82336">
        <ele>758</ele>
        <time>2021-08-20T18:01:46Z</time>
      </trkpt>
      <trkpt lat="42.94799" lon="0.82406">
        <ele>767</ele>
        <time>2021-08-20T18:01:56Z</time>
      </trkpt>
      <trkpt lat="42.94794" lon="0.82416">
        <ele>767</ele>
        <time>2021-08-20T18:01:58Z</time>
      </trkpt>
      <trkpt lat="42.94787" lon="0.82425">
        <ele>770</ele>
        <time>2021-08-20T18:01:59Z</time>
      </trkpt>
      <trkpt lat="42.9477" lon="0.82436">
        <ele>772</ele>
        <time>2021-08-20T18:02:03Z</time>
      </trkpt>
      <trkpt lat="42.94757" lon="0.82447">
        <ele>773</ele>
        <time>2021-08-20T18:02:05Z</time>
      </trkpt>
      <trkpt lat="42.94717" lon="0.82502">
        <ele>786</ele>
        <time>2021-08-20T18:02:15Z</time>
      </trkpt>
      <trkpt lat="42.94697" lon="0.82539">
        <ele>794</ele>
        <time>2021-08-20T18:02:21Z</time>
      </trkpt>
      <trkpt lat="42.94691" lon="0.8256">
        <ele>794</ele>
        <time>2021-08-20T18:02:24Z</time>
      </trkpt>
      <trkpt lat="42.94681" lon="0.82588">
        <ele>792</ele>
        <time>2021-08-20T18:02:28Z</time>
      </trkpt>
      <trkpt lat="42.9467" lon="0.82608">
        <ele>794</ele>
        <time>2021-08-20T18:02:32Z</time>
      </trkpt>
      <trkpt lat="42.94657" lon="0.82632">
        <ele>799</ele>
        <time>2021-08-20T18:02:36Z</time>
      </trkpt>
      <trkpt lat="42.9464" lon="0.82667">
        <ele>805</ele>
        <time>2021-08-20T18:02:41Z</time>
      </trkpt>
      <trkpt lat="42.94631" lon="0.8269">
        <ele>810</ele>
        <time>2021-08-20T18:02:44Z</time>
      </trkpt>
      <trkpt lat="42.94623" lon="0.82699">
        <ele>813</ele>
        <time>2021-08-20T18:02:46Z</time>
      </trkpt>
      <trkpt lat="42.94614" lon="0.82703">
        <ele>814</ele>
        <time>2021-08-20T18:02:48Z</time>
      </trkpt>
      <trkpt lat="42.94603" lon="0.82718">
        <ele>815</ele>
        <time>2021-08-20T18:02:51Z</time>
      </trkpt>
      <trkpt lat="42.94598" lon="0.82776">
        <ele>815</ele>
        <time>2021-08-20T18:02:58Z</time>
      </trkpt>
      <trkpt lat="42.94594" lon="0.82795">
        <ele>815</ele>
        <time>2021-08-20T18:03:01Z</time>
      </trkpt>
      <trkpt lat="42.94577" lon="0.82834">
        <ele>817</ele>
        <time>2021-08-20T18:03:07Z</time>
      </trkpt>
      <trkpt lat="42.9457" lon="0.82855">
        <ele>822</ele>
        <time>2021-08-20T18:03:10Z</time>
      </trkpt>
      <trkpt lat="42.94568" lon="0.82873">
        <ele>824</ele>
        <time>2021-08-20T18:03:12Z</time>
      </trkpt>
      <trkpt lat="42.94568" lon="0.82899">
        <ele>825</ele>
        <time>2021-08-20T18:03:16Z</time>
      </trkpt>
      <trkpt lat="42.94571" lon="0.82925">
        <ele>825</ele>
        <time>2021-08-20T18:03:19Z</time>
      </trkpt>
      <trkpt lat="42.94568" lon="0.82942">
        <ele>827</ele>
        <time>2021-08-20T18:03:21Z</time>
      </trkpt>
      <trkpt lat="42.94546" lon="0.83005">
        <ele>837</ele>
        <time>2021-08-20T18:03:30Z</time>
      </trkpt>
      <trkpt lat="42.94534" lon="0.83051">
        <ele>839</ele>
        <time>2021-08-20T18:03:37Z</time>
      </trkpt>
      <trkpt lat="42.94533" lon="0.83075">
        <ele>838</ele>
        <time>2021-08-20T18:03:40Z</time>
      </trkpt>
      <trkpt lat="42.94534" lon="0.83092">
        <ele>838</ele>
        <time>2021-08-20T18:03:42Z</time>
      </trkpt>
      <trkpt lat="42.94533" lon="0.83102">
        <ele>839</ele>
        <time>2021-08-20T18:03:43Z</time>
      </trkpt>
      <trkpt lat="42.94529" lon="0.8311">
        <ele>840</ele>
        <time>2021-08-20T18:03:45Z</time>
      </trkpt>
      <trkpt lat="42.94506" lon="0.83139">
        <ele>837</ele>
        <time>2021-08-20T18:03:50Z</time>
      </trkpt>
      <trkpt lat="42.94472" lon="0.8319">
        <ele>846</ele>
        <time>2021-08-20T18:03:59Z</time>
      </trkpt>
      <trkpt lat="42.94437" lon="0.83225">
        <ele>848</ele>
        <time>2021-08-20T18:04:07Z</time>
      </trkpt>
      <trkpt lat="42.94429" lon="0.83236">
        <ele>846</ele>
        <time>2021-08-20T18:04:09Z</time>
      </trkpt>
      <trkpt lat="42.9442" lon="0.83255">
        <ele>844</ele>
        <time>2021-08-20T18:04:12Z</time>
      </trkpt>
      <trkpt lat="42.94413" lon="0.83277">
        <ele>848</ele>
        <time>2021-08-20T18:04:15Z</time>
      </trkpt>
      <trkpt lat="42.94392" lon="0.83319">
        <ele>862</ele>
        <time>2021-08-20T18:04:22Z</time>
      </trkpt>
      <trkpt lat="42.94367" lon="0.83378">
        <ele>871</ele>
        <time>2021-08-20T18:04:31Z</time>
      </trkpt>
      <trkpt lat="42.94348" lon="0.83434">
        <ele>869</ele>
        <time>2021-08-20T18:04:39Z</time>
      </trkpt>
      <trkpt lat="42.94337" lon="0.83447">
        <ele>866</ele>
        <time>2021-08-20T18:04:41Z</time>
      </trkpt>
      <trkpt lat="42.94315" lon="0.83467">
        <ele>871</ele>
        <time>2021-08-20T18:04:46Z</time>
      </trkpt>
      <trkpt lat="42.94296" lon="0.8348">
        <ele>876</ele>
        <time>2021-08-20T18:04:50Z</time>
      </trkpt>
      <trkpt lat="42.94236" lon="0.83513">
        <ele>889</ele>
        <time>2021-08-20T18:05:01Z</time>
      </trkpt>
      <trkpt lat="42.94199" lon="0.83519">
        <ele>898</ele>
        <time>2021-08-20T18:05:08Z</time>
      </trkpt>
      <trkpt lat="42.94189" lon="0.83518">
        <ele>900</ele>
        <time>2021-08-20T18:05:10Z</time>
      </trkpt>
      <trkpt lat="42.94178" lon="0.83514">
        <ele>903</ele>
        <time>2021-08-20T18:05:12Z</time>
      </trkpt>
      <trkpt lat="42.94158" lon="0.83502">
        <ele>906</ele>
        <time>2021-08-20T18:05:15Z</time>
      </trkpt>
      <trkpt lat="42.9415" lon="0.835">
        <ele>907</ele>
        <time>2021-08-20T18:05:17Z</time>
      </trkpt>
      <trkpt lat="42.94148" lon="0.835">
        <ele>907</ele>
        <time>2021-08-20T18:05:17Z</time>
      </trkpt>
      <trkpt lat="42.94144" lon="0.83506">
        <ele>908</ele>
        <time>2021-08-20T18:05:18Z</time>
      </trkpt>
      <trkpt lat="42.94144" lon="0.8351">
        <ele>909</ele>
        <time>2021-08-20T18:05:19Z</time>
      </trkpt>
      <trkpt lat="42.94148" lon="0.83518">
        <ele>909</ele>
        <time>2021-08-20T18:05:20Z</time>
      </trkpt>
      <trkpt lat="42.94172" lon="0.83548">
        <ele>905</ele>
        <time>2021-08-20T18:05:26Z</time>
      </trkpt>
      <trkpt lat="42.94182" lon="0.83554">
        <ele>904</ele>
        <time>2021-08-20T18:05:28Z</time>
      </trkpt>
      <trkpt lat="42.94206" lon="0.83565">
        <ele>900</ele>
        <time>2021-08-20T18:05:32Z</time>
      </trkpt>
      <trkpt lat="42.94224" lon="0.83571">
        <ele>898</ele>
        <time>2021-08-20T18:05:36Z</time>
      </trkpt>
      <trkpt lat="42.94238" lon="0.83573">
        <ele>896</ele>
        <time>2021-08-20T18:05:38Z</time>
      </trkpt>
      <trkpt lat="42.94272" lon="0.83573">
        <ele>891</ele>
        <time>2021-08-20T18:05:44Z</time>
      </trkpt>
      <trkpt lat="42.94278" lon="0.83577">
        <ele>890</ele>
        <time>2021-08-20T18:05:45Z</time>
      </trkpt>
      <trkpt lat="42.94282" lon="0.83586">
        <ele>891</ele>
        <time>2021-08-20T18:05:47Z</time>
      </trkpt>
      <trkpt lat="42.94284" lon="0.83595">
        <ele>894</ele>
        <time>2021-08-20T18:05:48Z</time>
      </trkpt>
      <trkpt lat="42.94287" lon="0.83663">
        <ele>912</ele>
        <time>2021-08-20T18:05:57Z</time>
      </trkpt>
      <trkpt lat="42.94292" lon="0.83692">
        <ele>917</ele>
        <time>2021-08-20T18:06:01Z</time>
      </trkpt>
      <trkpt lat="42.94294" lon="0.83704">
        <ele>919</ele>
        <time>2021-08-20T18:06:02Z</time>
      </trkpt>
      <trkpt lat="42.94329" lon="0.83787">
        <ele>913</ele>
        <time>2021-08-20T18:06:15Z</time>
      </trkpt>
      <trkpt lat="42.94333" lon="0.83803">
        <ele>912</ele>
        <time>2021-08-20T18:06:17Z</time>
      </trkpt>
      <trkpt lat="42.94335" lon="0.83826">
        <ele>913</ele>
        <time>2021-08-20T18:06:20Z</time>
      </trkpt>
      <trkpt lat="42.94333" lon="0.83836">
        <ele>913</ele>
        <time>2021-08-20T18:06:21Z</time>
      </trkpt>
      <trkpt lat="42.94323" lon="0.83849">
        <ele>918</ele>
        <time>2021-08-20T18:06:24Z</time>
      </trkpt>
      <trkpt lat="42.94278" lon="0.8387">
        <ele>935</ele>
        <time>2021-08-20T18:06:32Z</time>
      </trkpt>
      <trkpt lat="42.9425" lon="0.83888">
        <ele>943</ele>
        <time>2021-08-20T18:06:38Z</time>
      </trkpt>
      <trkpt lat="42.94247" lon="0.83895">
        <ele>943</ele>
        <time>2021-08-20T18:06:39Z</time>
      </trkpt>
      <trkpt lat="42.94246" lon="0.83908">
        <ele>942</ele>
        <time>2021-08-20T18:06:41Z</time>
      </trkpt>
      <trkpt lat="42.94251" lon="0.83915">
        <ele>939</ele>
        <time>2021-08-20T18:06:42Z</time>
      </trkpt>
      <trkpt lat="42.94258" lon="0.8392">
        <ele>938</ele>
        <time>2021-08-20T18:06:43Z</time>
      </trkpt>
      <trkpt lat="42.9429" lon="0.83938">
        <ele>934</ele>
        <time>2021-08-20T18:06:49Z</time>
      </trkpt>
      <trkpt lat="42.94298" lon="0.83944">
        <ele>933</ele>
        <time>2021-08-20T18:06:51Z</time>
      </trkpt>
      <trkpt lat="42.94306" lon="0.83954">
        <ele>933</ele>
        <time>2021-08-20T18:06:53Z</time>
      </trkpt>
      <trkpt lat="42.9431" lon="0.83963">
        <ele>934</ele>
        <time>2021-08-20T18:06:54Z</time>
      </trkpt>
      <trkpt lat="42.94329" lon="0.84017">
        <ele>942</ele>
        <time>2021-08-20T18:07:02Z</time>
      </trkpt>
      <trkpt lat="42.94343" lon="0.84048">
        <ele>948</ele>
        <time>2021-08-20T18:07:07Z</time>
      </trkpt>
      <trkpt lat="42.94363" lon="0.84077">
        <ele>950</ele>
        <time>2021-08-20T18:07:12Z</time>
      </trkpt>
      <trkpt lat="42.94379" lon="0.84095">
        <ele>949</ele>
        <time>2021-08-20T18:07:16Z</time>
      </trkpt>
      <trkpt lat="42.94386" lon="0.84106">
        <ele>949</ele>
        <time>2021-08-20T18:07:18Z</time>
      </trkpt>
      <trkpt lat="42.94394" lon="0.84123">
        <ele>950</ele>
        <time>2021-08-20T18:07:20Z</time>
      </trkpt>
      <trkpt lat="42.94402" lon="0.84148">
        <ele>952</ele>
        <time>2021-08-20T18:07:24Z</time>
      </trkpt>
      <trkpt lat="42.94406" lon="0.8417">
        <ele>955</ele>
        <time>2021-08-20T18:07:27Z</time>
      </trkpt>
      <trkpt lat="42.94403" lon="0.84206">
        <ele>961</ele>
        <time>2021-08-20T18:07:32Z</time>
      </trkpt>
      <trkpt lat="42.94396" lon="0.84228">
        <ele>967</ele>
        <time>2021-08-20T18:07:35Z</time>
      </trkpt>
      <trkpt lat="42.94388" lon="0.8424">
        <ele>972</ele>
        <time>2021-08-20T18:07:37Z</time>
      </trkpt>
      <trkpt lat="42.94385" lon="0.84252">
        <ele>975</ele>
        <time>2021-08-20T18:07:38Z</time>
      </trkpt>
      <trkpt lat="42.94386" lon="0.84259">
        <ele>976</ele>
        <time>2021-08-20T18:07:39Z</time>
      </trkpt>
      <trkpt lat="42.94389" lon="0.84266">
        <ele>976</ele>
        <time>2021-08-20T18:07:40Z</time>
      </trkpt>
      <trkpt lat="42.94395" lon="0.84272">
        <ele>975</ele>
        <time>2021-08-20T18:07:42Z</time>
      </trkpt>
      <trkpt lat="42.94408" lon="0.84279">
        <ele>972</ele>
        <time>2021-08-20T18:07:44Z</time>
      </trkpt>
      <trkpt lat="42.94421" lon="0.84289">
        <ele>972</ele>
        <time>2021-08-20T18:07:47Z</time>
      </trkpt>
      <trkpt lat="42.9445" lon="0.84331">
        <ele>978</ele>
        <time>2021-08-20T18:07:54Z</time>
      </trkpt>
      <trkpt lat="42.94454" lon="0.84343">
        <ele>980</ele>
        <time>2021-08-20T18:07:56Z</time>
      </trkpt>
      <trkpt lat="42.94458" lon="0.84377">
        <ele>986</ele>
        <time>2021-08-20T18:08:01Z</time>
      </trkpt>
      <trkpt lat="42.94462" lon="0.84404">
        <ele>991</ele>
        <time>2021-08-20T18:08:04Z</time>
      </trkpt>
      <trkpt lat="42.94474" lon="0.84436">
        <ele>992</ele>
        <time>2021-08-20T18:08:09Z</time>
      </trkpt>
      <trkpt lat="42.94486" lon="0.84462">
        <ele>991</ele>
        <time>2021-08-20T18:08:13Z</time>
      </trkpt>
      <trkpt lat="42.94488" lon="0.84473">
        <ele>991</ele>
        <time>2021-08-20T18:08:14Z</time>
      </trkpt>
      <trkpt lat="42.94487" lon="0.84489">
        <ele>994</ele>
        <time>2021-08-20T18:08:16Z</time>
      </trkpt>
      <trkpt lat="42.94481" lon="0.84525">
        <ele>1000</ele>
        <time>2021-08-20T18:08:21Z</time>
      </trkpt>
      <trkpt lat="42.94465" lon="0.84594">
        <ele>1011</ele>
        <time>2021-08-20T18:08:31Z</time>
      </trkpt>
      <trkpt lat="42.94452" lon="0.84627">
        <ele>1015</ele>
        <time>2021-08-20T18:08:36Z</time>
      </trkpt>
      <trkpt lat="42.94449" lon="0.84645">
        <ele>1016</ele>
        <time>2021-08-20T18:08:38Z</time>
      </trkpt>
      <trkpt lat="42.94448" lon="0.84662">
        <ele>1016</ele>
        <time>2021-08-20T18:08:40Z</time>
      </trkpt>
      <trkpt lat="42.94448" lon="0.8468">
        <ele>1015</ele>
        <time>2021-08-20T18:08:43Z</time>
      </trkpt>
      <trkpt lat="42.94453" lon="0.84741">
        <ele>1013</ele>
        <time>2021-08-20T18:08:51Z</time>
      </trkpt>
      <trkpt lat="42.94453" lon="0.84758">
        <ele>1013</ele>
        <time>2021-08-20T18:08:53Z</time>
      </trkpt>
      <trkpt lat="42.94449" lon="0.84802">
        <ele>1014</ele>
        <time>2021-08-20T18:08:59Z</time>
      </trkpt>
      <trkpt lat="42.94447" lon="0.8489">
        <ele>1021</ele>
        <time>2021-08-20T18:09:10Z</time>
      </trkpt>
      <trkpt lat="42.9444" lon="0.84936">
        <ele>1025</ele>
        <time>2021-08-20T18:09:16Z</time>
      </trkpt>
      <trkpt lat="42.94432" lon="0.84968">
        <ele>1026</ele>
        <time>2021-08-20T18:09:20Z</time>
      </trkpt>
      <trkpt lat="42.94428" lon="0.84977">
        <ele>1026</ele>
        <time>2021-08-20T18:09:22Z</time>
      </trkpt>
      <trkpt lat="42.94422" lon="0.84984">
        <ele>1025</ele>
        <time>2021-08-20T18:09:23Z</time>
      </trkpt>
      <trkpt lat="42.94414" lon="0.84989">
        <ele>1025</ele>
        <time>2021-08-20T18:09:25Z</time>
      </trkpt>
      <trkpt lat="42.94384" lon="0.85002">
        <ele>1028</ele>
        <time>2021-08-20T18:09:30Z</time>
      </trkpt>
      <trkpt lat="42.94375" lon="0.85002">
        <ele>1029</ele>
        <time>2021-08-20T18:09:32Z</time>
      </trkpt>
      <trkpt lat="42.94285" lon="0.84988">
        <ele>1040</ele>
        <time>2021-08-20T18:09:48Z</time>
      </trkpt>
      <trkpt lat="42.94269" lon="0.84989">
        <ele>1042</ele>
        <time>2021-08-20T18:09:51Z</time>
      </trkpt>
      <trkpt lat="42.94263" lon="0.84991">
        <ele>1043</ele>
        <time>2021-08-20T18:09:52Z</time>
      </trkpt>
      <trkpt lat="42.94257" lon="0.85002">
        <ele>1042</ele>
        <time>2021-08-20T18:09:54Z</time>
      </trkpt>
      <trkpt lat="42.94256" lon="0.85011">
        <ele>1043</ele>
        <time>2021-08-20T18:09:55Z</time>
      </trkpt>
      <trkpt lat="42.94259" lon="0.85029">
        <ele>1044</ele>
        <time>2021-08-20T18:09:57Z</time>
      </trkpt>
      <trkpt lat="42.94302" lon="0.85131">
        <ele>1050</ele>
        <time>2021-08-20T18:10:13Z</time>
      </trkpt>
      <trkpt lat="42.94324" lon="0.85173">
        <ele>1052</ele>
        <time>2021-08-20T18:10:20Z</time>
      </trkpt>
      <trkpt lat="42.94344" lon="0.85202">
        <ele>1055</ele>
        <time>2021-08-20T18:10:25Z</time>
      </trkpt>
      <trkpt lat="42.94351" lon="0.8521">
        <ele>1056</ele>
        <time>2021-08-20T18:10:26Z</time>
      </trkpt>
      <trkpt lat="42.94374" lon="0.85221">
        <ele>1057</ele>
        <time>2021-08-20T18:10:31Z</time>
      </trkpt>
    </trkseg>
  </trk>
</gpx>